Time;durP1;ratioP1;P1;durP2;ratioP2;P2;SDS_P1;SDS_P2;PMS_P1;PMS_P2;Temp;Humidity;BMP_temperature;BMP_pressure;BME280_temperature;BME280_humidity;BME280_pressure;Samples;Min_cycle;Max_cycle;Signal;HPM_P1;HPM_P2
2023/10/02 00:02:40;;;;;;;16.13;7.23;;;14.60;74.30;;;;;;5106712;28;20563;-79
2023/10/02 00:05:07;;;;;;;13.90;6.57;;;14.60;74.20;;;;;;5088602;28;20507;-79
2023/10/02 00:07:37;;;;;;;13.90;6.40;;;14.70;74.10;;;;;;5090732;28;20726;-80
2023/10/02 00:10:06;;;;;;;16.33;6.23;;;14.70;74.10;;;;;;5101677;28;20558;-80
2023/10/02 00:12:35;;;;;;;15.03;6.80;;;14.70;74.10;;;;;;5105740;28;20565;-81
2023/10/02 00:15:12;;;;;;;16.00;6.70;;;14.70;74.00;;;;;;5101636;28;20552;-80
2023/10/02 00:17:43;;;;;;;13.33;6.50;;;14.70;73.90;;;;;;5105602;28;20454;-81
2023/10/02 00:20:19;;;;;;;16.70;7.60;;;14.60;73.90;;;;;;5105626;28;20505;-80
2023/10/02 00:22:50;;;;;;;14.17;7.00;;;14.60;74.00;;;;;;5107363;28;20530;-80
2023/10/02 00:25:20;;;;;;;16.30;6.53;;;14.60;74.00;;;;;;5107841;28;20841;-78
2023/10/02 00:27:51;;;;;;;14.03;6.80;;;14.60;73.90;;;;;;5108616;28;20977;-79
2023/10/02 00:30:21;;;;;;;18.50;6.63;;;14.60;73.90;;;;;;5088668;28;20966;-81
2023/10/02 00:32:51;;;;;;;13.80;7.00;;;14.60;73.90;;;;;;5107445;28;20486;-80
2023/10/02 00:35:22;;;;;;;15.90;7.50;;;14.60;73.90;;;;;;5104527;28;20452;-81
2023/10/02 00:37:51;;;;;;;16.80;7.40;;;14.50;73.90;;;;;;5092451;28;20997;-80
2023/10/02 00:40:26;;;;;;;11.83;6.60;;;14.50;73.90;;;;;;5084635;28;20467;-80
2023/10/02 00:42:58;;;;;;;13.07;6.60;;;14.50;73.90;;;;;;5084637;28;20451;-79
2023/10/02 00:45:29;;;;;;;14.90;7.00;;;14.50;73.90;;;;;;5107893;28;20815;-80
2023/10/02 00:48:24;;;;;;;15.50;6.93;;;14.50;74.00;;;;;;5090844;28;20484;-80
2023/10/02 00:50:50;;;;;;;16.20;6.10;;;14.50;74.00;;;;;;5102221;28;20462;-80
2023/10/02 00:53:24;;;;;;;21.57;7.83;;;14.50;73.90;;;;;;5091585;28;20462;-81
2023/10/02 00:55:56;;;;;;;17.13;7.77;;;14.40;73.80;;;;;;5107360;28;20549;-79
2023/10/02 00:58:26;;;;;;;12.53;6.37;;;14.30;73.80;;;;;;5106824;28;20454;-81
2023/10/02 01:00:55;;;;;;;17.00;7.00;;;14.20;74.00;;;;;;5093038;28;20476;-81
2023/10/02 01:03:23;;;;;;;14.13;7.23;;;14.20;74.10;;;;;;5093322;28;20500;-80
2023/10/02 01:05:54;;;;;;;16.07;7.07;;;14.30;74.20;;;;;;5093662;28;20447;-80
2023/10/02 01:08:42;;;;;;;14.27;7.17;;;14.30;74.20;;;;;;5089368;28;21158;-82
2023/10/02 01:11:13;;;;;;;15.17;6.90;;;14.30;74.10;;;;;;5107302;28;20467;-80
2023/10/02 01:13:44;;;;;;;15.03;7.37;;;14.20;74.00;;;;;;5111453;28;20812;-81
2023/10/02 01:16:17;;;;;;;15.80;6.30;;;14.10;73.90;;;;;;5091131;28;20879;-80
2023/10/02 01:18:48;;;;;;;15.77;6.90;;;14.00;74.00;;;;;;5111847;28;20443;-81
2023/10/02 01:21:24;;;;;;;12.73;6.40;;;14.00;74.20;;;;;;5105422;28;20451;-81
2023/10/02 01:24:08;;;;;;;13.00;5.90;;;14.00;74.30;;;;;;5108781;28;20681;-80
2023/10/02 01:26:38;;;;;;;13.07;6.33;;;14.00;74.30;;;;;;5107070;28;20459;-80
2023/10/02 01:29:06;;;;;;;16.47;7.33;;;14.00;74.20;;;;;;5089362;28;20512;-80
2023/10/02 01:31:41;;;;;;;14.50;6.23;;;14.00;74.30;;;;;;5110158;28;20998;-80
2023/10/02 01:34:13;;;;;;;16.60;7.77;;;13.90;74.30;;;;;;5109571;28;20476;-80
2023/10/02 01:36:41;;;;;;;15.30;6.77;;;13.90;74.20;;;;;;5111065;28;20526;-80
2023/10/02 01:39:13;;;;;;;14.07;5.70;;;13.90;74.10;;;;;;5109212;28;20957;-81
2023/10/02 01:41:42;;;;;;;16.10;6.77;;;13.80;74.20;;;;;;5108134;28;20467;-79
2023/10/02 01:44:11;;;;;;;16.20;6.77;;;13.70;74.30;;;;;;5092826;28;20553;-80
2023/10/02 01:46:49;;;;;;;14.57;7.30;;;13.70;74.30;;;;;;5094675;28;20461;-79
2023/10/02 01:49:25;;;;;;;17.20;6.97;;;13.70;74.50;;;;;;5091162;28;20457;-81
2023/10/02 01:51:57;;;;;;;15.00;6.90;;;13.70;74.60;;;;;;5107891;28;20830;-80
2023/10/02 01:54:29;;;;;;;15.87;7.03;;;13.70;74.70;;;;;;5111096;28;20450;-80
2023/10/02 01:56:59;;;;;;;14.33;6.50;;;13.80;74.80;;;;;;5091382;28;20969;-80
2023/10/02 01:59:28;;;;;;;13.90;7.20;;;13.80;74.80;;;;;;5087224;28;20456;-80
2023/10/02 02:01:57;;;;;;;18.30;6.23;;;13.90;74.60;;;;;;5090869;28;21074;-79
2023/10/02 02:04:32;;;;;;;13.70;6.33;;;13.90;74.60;;;;;;5090254;28;20531;-81
2023/10/02 02:07:08;;;;;;;15.43;6.63;;;13.90;74.50;;;;;;5098268;28;20517;-81
2023/10/02 02:09:38;;;;;;;17.73;7.00;;;13.90;74.50;;;;;;5109652;28;20976;-81
2023/10/02 02:12:11;;;;;;;13.80;5.73;;;13.90;74.40;;;;;;5089363;28;20537;-79
2023/10/02 02:14:49;;;;;;;13.53;7.23;;;13.90;74.30;;;;;;5090328;28;20992;-81
2023/10/02 02:17:19;;;;;;;14.70;6.97;;;13.90;74.20;;;;;;5092407;28;20474;-81
2023/10/02 02:19:52;;;;;;;17.77;6.67;;;13.80;74.10;;;;;;5106815;28;20491;-80
2023/10/02 02:22:23;;;;;;;16.00;6.67;;;13.80;74.10;;;;;;5106959;28;20448;-80
2023/10/02 02:24:54;;;;;;;11.37;6.10;;;13.70;74.20;;;;;;5082591;28;20475;-81
2023/10/02 02:27:22;;;;;;;14.20;6.60;;;13.80;74.20;;;;;;5107424;28;20448;-80
2023/10/02 02:29:56;;;;;;;15.60;6.40;;;13.70;74.30;;;;;;5110482;28;20543;-80
2023/10/02 02:32:43;;;;;;;19.57;7.07;;;13.70;74.20;;;;;;5072988;28;20507;-80
2023/10/02 02:35:14;;;;;;;15.00;7.20;;;13.60;74.10;;;;;;5084119;28;20526;-82
2023/10/02 02:37:44;;;;;;;12.77;7.20;;;13.50;74.30;;;;;;5088011;28;20772;-80
2023/10/02 02:40:26;;;;;;;15.43;7.20;;;13.50;74.40;;;;;;5086606;28;20460;-81
2023/10/02 02:42:56;;;;;;;15.37;6.67;;;13.50;74.30;;;;;;5084879;28;20446;-80
2023/10/02 02:45:28;;;;;;;13.93;6.43;;;13.40;74.30;;;;;;5083471;28;20513;-81
2023/10/02 02:48:03;;;;;;;15.03;6.87;;;13.30;74.30;;;;;;5087380;28;20476;-81
2023/10/02 02:50:34;;;;;;;13.00;6.10;;;13.20;74.60;;;;;;5067682;28;20888;-79
2023/10/02 02:53:21;;;;;;;13.13;5.83;;;13.20;74.70;;;;;;5085249;28;20546;-79
2023/10/02 02:56:14;;;;;;;14.67;6.20;;;13.20;74.60;;;;;;5071173;28;20469;-81
2023/10/02 02:58:45;;;;;;;14.50;6.17;;;13.20;74.80;;;;;;5081854;28;21074;-81
2023/10/02 03:01:16;;;;;;;13.87;6.63;;;13.30;74.90;;;;;;5089004;28;20520;-82
2023/10/02 03:03:44;;;;;;;12.20;6.03;;;13.30;74.80;;;;;;5092650;28;21078;-81
2023/10/02 03:06:17;;;;;;;15.77;6.77;;;13.30;74.80;;;;;;5087823;28;20910;-81
2023/10/02 03:08:46;;;;;;;12.13;6.80;;;13.40;74.80;;;;;;5085277;28;20470;-80
2023/10/02 03:11:19;;;;;;;15.33;6.03;;;13.40;74.70;;;;;;5105885;28;20455;-81
2023/10/02 03:13:48;;;;;;;15.93;6.90;;;13.40;74.70;;;;;;5089130;28;20537;-80
2023/10/02 03:16:29;;;;;;;15.90;6.23;;;13.30;74.70;;;;;;5082393;28;20450;-80
2023/10/02 03:19:03;;;;;;;13.80;6.80;;;13.30;74.80;;;;;;5087796;28;20903;-80
2023/10/02 03:21:31;;;;;;;14.70;6.63;;;13.30;74.80;;;;;;5086147;28;20445;-81
2023/10/02 03:24:00;;;;;;;15.10;7.10;;;13.30;74.80;;;;;;5084663;28;20797;-81
2023/10/02 03:26:43;;;;;;;13.77;6.30;;;13.20;74.90;;;;;;5084311;28;20492;-81
2023/10/02 03:29:21;;;;;;;15.03;7.30;;;13.20;75.00;;;;;;5083787;28;20989;-80
2023/10/02 03:31:50;;;;;;;13.23;6.20;;;13.20;75.10;;;;;;5086681;28;20593;-80
2023/10/02 03:34:33;;;;;;;15.20;6.20;;;13.20;75.20;;;;;;5088502;28;20453;-81
2023/10/02 03:37:13;;;;;;;13.83;6.50;;;13.30;75.10;;;;;;5087712;28;21015;-80
2023/10/02 03:39:59;;;;;;;10.90;6.37;;;13.30;74.90;;;;;;5085505;28;20450;-81
2023/10/02 03:42:31;;;;;;;15.27;8.00;;;13.30;74.80;;;;;;5087655;28;20482;-80
2023/10/02 03:45:02;;;;;;;12.00;6.10;;;13.30;74.80;;;;;;5088139;28;20503;-80
2023/10/02 03:47:33;;;;;;;15.33;6.87;;;13.20;74.80;;;;;;5088309;28;20525;-79
2023/10/02 03:50:04;;;;;;;14.63;6.07;;;13.20;74.80;;;;;;5089253;28;20488;-81
2023/10/02 03:52:35;;;;;;;14.37;6.57;;;13.20;74.80;;;;;;5090663;28;20446;-80
2023/10/02 03:55:14;;;;;;;14.53;7.10;;;13.20;74.80;;;;;;5088419;28;20498;-81
2023/10/02 03:57:52;;;;;;;15.73;6.90;;;13.20;74.80;;;;;;5087602;28;20453;-80
2023/10/02 04:00:22;;;;;;;19.13;7.13;;;13.20;74.80;;;;;;5083619;28;20452;-79
2023/10/02 04:02:54;;;;;;;13.53;6.60;;;13.20;74.80;;;;;;5088025;28;20477;-80
2023/10/02 04:05:36;;;;;;;15.33;7.20;;;13.20;74.90;;;;;;5086334;28;20942;-79
2023/10/02 04:08:21;;;;;;;12.40;6.13;;;13.20;74.80;;;;;;5087367;28;20562;-79
2023/10/02 04:10:51;;;;;;;18.00;6.90;;;13.20;74.70;;;;;;5084992;28;20523;-79
2023/10/02 04:13:23;;;;;;;14.27;6.70;;;13.20;74.70;;;;;;5102381;28;20535;-81
2023/10/02 04:15:53;;;;;;;15.00;7.27;;;13.20;74.70;;;;;;5086588;28;20467;-82
2023/10/02 04:21:09;;;;;;;15.83;7.43;;;13.10;74.80;;;;;;5083679;28;20461;-79
2023/10/02 04:23:40;;;;;;;17.53;7.17;;;13.10;74.80;;;;;;5082854;28;20453;-80
2023/10/02 04:26:19;;;;;;;15.60;7.10;;;13.10;74.70;;;;;;5081469;28;20456;-79
2023/10/02 04:28:55;;;;;;;14.63;6.23;;;13.10;74.60;;;;;;5090272;28;20486;-79
2023/10/02 04:31:27;;;;;;;15.30;6.67;;;13.00;74.70;;;;;;5091166;28;20470;-79
2023/10/02 04:34:15;;;;;;;14.27;6.80;;;13.00;74.60;;;;;;5075869;28;20504;-80
2023/10/02 04:36:46;;;;;;;13.20;6.00;;;13.00;74.70;;;;;;5076141;28;20515;-79
2023/10/02 04:42:14;;;;;;;14.50;6.43;;;12.90;74.90;;;;;;5089813;28;20477;-80
2023/10/02 04:44:44;;;;;;;18.63;7.27;;;12.90;74.90;;;;;;5088755;28;20454;-79
2023/10/02 04:47:17;;;;;;;12.70;6.60;;;13.00;75.00;;;;;;5090050;28;21031;-80
2023/10/02 04:50:34;;;;;;;14.30;6.83;;;13.00;74.90;;;;;;5086050;28;20489;-80
2023/10/02 04:52:56;;;;;;;14.30;7.47;;;13.00;74.80;;;;;;5073946;28;20471;-80
2023/10/02 04:55:31;;;;;;;14.60;7.03;;;13.00;74.70;;;;;;5092091;28;20935;-80
2023/10/02 04:58:04;;;;;;;15.40;7.43;;;12.90;74.80;;;;;;5074015;28;20464;-80
2023/10/02 05:00:33;;;;;;;13.83;7.83;;;12.90;74.80;;;;;;5085340;28;21310;-79
2023/10/02 05:03:18;;;;;;;14.17;6.73;;;12.90;74.80;;;;;;5112882;28;20529;-80
2023/10/02 05:05:53;;;;;;;18.87;7.80;;;12.80;74.80;;;;;;5088096;28;20462;-80
2023/10/02 05:08:21;;;;;;;13.63;7.97;;;12.80;74.70;;;;;;5109090;28;20832;-79
2023/10/02 05:10:56;;;;;;;13.60;6.80;;;12.70;74.80;;;;;;5093556;28;20511;-80
2023/10/02 05:16:13;;;;;;;15.47;7.20;;;12.70;75.00;;;;;;5089451;28;20493;-79
2023/10/02 05:18:47;;;;;;;19.23;7.87;;;12.70;75.10;;;;;;5112054;28;20448;-81
2023/10/02 05:21:16;;;;;;;17.00;8.17;;;12.70;75.20;;;;;;5091303;28;20875;-80
2023/10/02 05:23:56;;;;;;;19.70;7.67;;;12.70;75.30;;;;;;5110832;28;20463;-81
2023/10/02 05:26:34;;;;;;;12.13;6.73;;;12.70;75.30;;;;;;5108809;28;20852;-78
2023/10/02 05:29:07;;;;;;;15.33;7.10;;;12.70;75.30;;;;;;5093795;28;20472;-80
2023/10/02 05:31:40;;;;;;;14.20;7.60;;;12.70;75.50;;;;;;5110473;28;20475;-82
2023/10/02 05:34:13;;;;;;;14.93;7.50;;;12.70;75.60;;;;;;5100825;28;20463;-79
2023/10/02 05:36:55;;;;;;;18.97;8.30;;;12.80;75.70;;;;;;5106009;28;20458;-78
2023/10/02 05:39:31;;;;;;;18.40;8.13;;;12.90;75.70;;;;;;5105596;28;20550;-80
2023/10/02 05:42:05;;;;;;;18.13;9.30;;;12.80;75.50;;;;;;5091598;28;20462;-80
2023/10/02 05:44:35;;;;;;;32.80;12.27;;;12.80;75.50;;;;;;5106320;28;20467;-79
2023/10/02 05:47:08;;;;;;;27.57;14.20;;;12.80;75.50;;;;;;5108247;28;20474;-78
2023/10/02 05:49:37;;;;;;;35.47;15.17;;;12.80;75.60;;;;;;5104741;28;20574;-79
2023/10/02 05:52:07;;;;;;;27.97;12.93;;;12.70;75.70;;;;;;5108491;28;20452;-79
2023/10/02 05:54:47;;;;;;;34.40;14.40;;;12.70;75.90;;;;;;5108934;28;20597;-81
2023/10/02 05:57:16;;;;;;;29.77;13.37;;;12.70;76.10;;;;;;5106253;28;21213;-80
2023/10/02 05:59:51;;;;;;;30.97;13.50;;;12.70;76.30;;;;;;5101608;28;20505;-81
2023/10/02 06:02:22;;;;;;;29.77;13.03;;;12.70;76.50;;;;;;5103670;28;20479;-81
2023/10/02 06:04:52;;;;;;;24.30;12.00;;;12.70;76.50;;;;;;5088350;28;20962;-80
2023/10/02 06:10:08;;;;;;;24.83;11.67;;;12.80;76.80;;;;;;5109194;27;20476;-80
2023/10/02 06:12:36;;;;;;;24.00;12.00;;;12.90;76.90;;;;;;5104621;28;20513;-79
2023/10/02 06:15:09;;;;;;;23.30;11.20;;;13.00;77.00;;;;;;5104911;28;20456;-80
2023/10/02 06:17:41;;;;;;;23.93;11.97;;;13.10;77.00;;;;;;5108511;28;20465;-81
2023/10/02 06:20:17;;;;;;;23.97;11.50;;;13.20;77.00;;;;;;5107928;28;20553;-81
2023/10/02 06:22:47;;;;;;;23.00;11.40;;;13.20;77.00;;;;;;5104980;28;20444;-78
2023/10/02 06:25:18;;;;;;;23.20;11.37;;;13.30;77.00;;;;;;5107413;28;20454;-81
2023/10/02 06:27:47;;;;;;;22.00;11.07;;;13.30;76.90;;;;;;5108041;28;20449;-79
2023/10/02 06:30:17;;;;;;;24.80;12.50;;;13.30;77.00;;;;;;5108747;28;20476;-81
2023/10/02 06:32:53;;;;;;;28.27;13.03;;;13.40;77.00;;;;;;5105990;28;20489;-79
2023/10/02 06:35:22;;;;;;;21.77;11.03;;;13.40;77.10;;;;;;5105701;28;20907;-81
2023/10/02 06:37:52;;;;;;;21.53;10.50;;;13.40;77.10;;;;;;5089433;28;20990;-79
2023/10/02 06:40:23;;;;;;;21.93;11.53;;;13.50;77.20;;;;;;5098588;28;20455;-80
2023/10/02 06:42:57;;;;;;;17.60;8.93;;;13.50;77.20;;;;;;5088298;28;20991;-80
2023/10/02 06:45:29;;;;;;;16.70;8.93;;;13.50;77.30;;;;;;5083612;28;20470;-81
2023/10/02 06:47:59;;;;;;;15.77;7.73;;;13.50;77.40;;;;;;5093055;28;20560;-79
2023/10/02 06:50:32;;;;;;;14.50;8.13;;;13.50;77.50;;;;;;5103389;28;20487;-79
2023/10/02 06:53:00;;;;;;;15.10;8.60;;;13.60;77.60;;;;;;5088662;28;20461;-81
2023/10/02 06:55:29;;;;;;;16.00;8.90;;;13.70;77.70;;;;;;5090662;28;21139;-79
2023/10/02 06:57:57;;;;;;;14.60;7.90;;;13.70;77.90;;;;;;5110978;28;20489;-81
2023/10/02 07:00:36;;;;;;;16.03;9.23;;;13.80;78.00;;;;;;5104565;28;20454;-81
2023/10/02 07:03:08;;;;;;;19.10;10.13;;;13.80;78.10;;;;;;5101338;28;21054;-80
2023/10/02 07:05:36;;;;;;;18.47;9.10;;;13.90;78.20;;;;;;5104127;28;20834;-79
2023/10/02 07:08:17;;;;;;;14.53;8.87;;;13.90;78.20;;;;;;5103905;28;20461;-80
2023/10/02 07:10:48;;;;;;;19.10;10.40;;;14.00;78.20;;;;;;5105457;28;20571;-78
2023/10/02 07:13:20;;;;;;;16.90;9.40;;;14.00;78.30;;;;;;5106071;28;20458;-79
2023/10/02 07:15:57;;;;;;;18.07;9.40;;;14.00;78.40;;;;;;5106874;28;20458;-79
2023/10/02 07:18:36;;;;;;;16.17;10.30;;;14.10;78.50;;;;;;5081270;28;20451;-81
2023/10/02 07:21:07;;;;;;;24.70;9.90;;;14.10;78.50;;;;;;5105906;28;20452;-79
2023/10/02 07:23:37;;;;;;;18.77;9.93;;;14.20;78.60;;;;;;5108095;28;20473;-80
2023/10/02 07:26:06;;;;;;;16.47;9.30;;;14.20;78.60;;;;;;5103011;28;20508;-79
2023/10/02 07:28:48;;;;;;;18.73;10.67;;;14.20;78.70;;;;;;5085150;28;20510;-80
2023/10/02 07:31:18;;;;;;;17.07;9.57;;;14.30;78.80;;;;;;5103767;28;20478;-80
2023/10/02 07:33:47;;;;;;;18.80;10.20;;;14.30;78.80;;;;;;5085388;28;20498;-82
2023/10/02 07:36:16;;;;;;;18.23;11.17;;;14.30;78.90;;;;;;5108310;28;20460;-79
2023/10/02 07:38:46;;;;;;;17.70;9.80;;;14.40;79.00;;;;;;5111528;28;20519;-80
2023/10/02 07:41:23;;;;;;;20.20;10.47;;;14.40;79.20;;;;;;5109196;28;20502;-79
2023/10/02 07:43:53;;;;;;;17.97;9.20;;;14.40;79.30;;;;;;5105300;28;20454;-79
2023/10/02 07:46:22;;;;;;;18.03;9.40;;;14.50;79.40;;;;;;5088405;28;20459;-80
2023/10/02 07:48:57;;;;;;;17.03;9.60;;;14.50;79.50;;;;;;5103870;28;20457;-79
2023/10/02 07:51:35;;;;;;;17.07;9.47;;;14.60;79.60;;;;;;5104683;28;20486;-78
2023/10/02 07:54:06;;;;;;;16.03;9.90;;;14.60;79.60;;;;;;5089759;28;20493;-81
2023/10/02 07:56:35;;;;;;;18.37;9.97;;;14.60;79.70;;;;;;5090099;28;20508;-80
2023/10/02 07:59:05;;;;;;;19.00;10.00;;;14.60;79.80;;;;;;5103366;28;20488;-79
2023/10/02 08:01:33;;;;;;;14.90;8.80;;;14.70;79.90;;;;;;5098483;28;20596;-79
2023/10/02 08:04:04;;;;;;;18.37;9.93;;;14.70;79.90;;;;;;5101596;28;20840;-80
2023/10/02 08:06:36;;;;;;;16.63;9.43;;;14.80;80.00;;;;;;5103756;28;20575;-80
2023/10/02 08:09:36;;;;;;;16.80;8.83;;;14.80;80.10;;;;;;5104780;28;20456;-79
2023/10/02 08:12:08;;;;;;;19.97;10.27;;;14.90;80.20;;;;;;5105670;28;20484;-80
2023/10/02 08:14:38;;;;;;;16.10;9.83;;;14.90;80.10;;;;;;5105648;28;20462;-78
2023/10/02 08:17:18;;;;;;;17.67;9.77;;;14.90;80.30;;;;;;5105327;28;20447;-78
2023/10/02 08:19:56;;;;;;;14.67;9.70;;;14.90;80.30;;;;;;5105480;28;20457;-80
2023/10/02 08:22:35;;;;;;;16.70;9.47;;;15.00;80.60;;;;;;5107687;28;20457;-80
2023/10/02 08:25:04;;;;;;;19.57;10.10;;;15.00;80.60;;;;;;5103987;28;21285;-80
2023/10/02 08:27:32;;;;;;;18.73;9.57;;;15.10;80.70;;;;;;5105257;28;20923;-80
2023/10/02 08:30:17;;;;;;;16.70;9.40;;;15.20;80.60;;;;;;5087112;28;20465;-78
2023/10/02 08:32:46;;;;;;;18.93;10.67;;;15.20;80.70;;;;;;5084946;28;20467;-79
2023/10/02 08:35:16;;;;;;;18.70;10.17;;;15.30;80.70;;;;;;5068111;28;20562;-80
2023/10/02 08:37:44;;;;;;;19.50;10.27;;;15.30;80.80;;;;;;5084294;28;20482;-79
2023/10/02 08:40:14;;;;;;;18.93;9.80;;;15.40;80.90;;;;;;5083268;28;20462;-79
2023/10/02 08:42:46;;;;;;;17.90;9.53;;;15.50;80.90;;;;;;5086886;28;20522;-80
2023/10/02 08:45:18;;;;;;;17.57;9.50;;;15.50;80.90;;;;;;5084101;28;20989;-79
2023/10/02 08:47:47;;;;;;;18.53;9.17;;;15.60;80.80;;;;;;5084096;28;20939;-80
2023/10/02 08:50:17;;;;;;;19.30;9.20;;;15.70;80.70;;;;;;5086477;28;20460;-79
2023/10/02 08:52:50;;;;;;;17.93;10.20;;;15.70;80.70;;;;;;5082933;28;20468;-79
2023/10/02 08:55:45;;;;;;;17.40;8.70;;;15.80;80.70;;;;;;5077389;28;20458;-78
2023/10/02 08:58:17;;;;;;;17.73;9.70;;;15.90;80.80;;;;;;5084321;28;20955;-80
2023/10/02 09:01:17;;;;;;;17.57;9.60;;;15.90;80.80;;;;;;5082595;28;21003;-80
2023/10/02 09:04:03;;;;;;;18.20;9.00;;;16.10;80.70;;;;;;5083599;28;21061;-79
2023/10/02 09:06:41;;;;;;;20.50;9.17;;;16.10;80.80;;;;;;5094892;28;20547;-80
2023/10/02 09:09:17;;;;;;;19.27;9.90;;;16.20;80.80;;;;;;5084272;28;20866;-79
2023/10/02 09:11:45;;;;;;;18.93;9.10;;;16.30;80.80;;;;;;5086756;28;20583;-80
2023/10/02 09:14:16;;;;;;;18.13;9.60;;;16.30;80.80;;;;;;5086370;28;20476;-80
2023/10/02 09:16:48;;;;;;;15.27;8.83;;;16.40;80.80;;;;;;5088421;28;20539;-81
2023/10/02 09:19:30;;;;;;;15.20;9.47;;;16.50;80.90;;;;;;5090986;28;20460;-80
2023/10/02 09:22:07;;;;;;;19.00;9.13;;;16.50;81.10;;;;;;5089787;28;20449;-79
2023/10/02 09:24:35;;;;;;;14.20;7.97;;;16.60;81.10;;;;;;5090309;28;20897;-79
2023/10/02 09:29:46;;;;;;;13.60;7.60;;;16.80;81.10;;;;;;5089998;28;20448;-79
2023/10/02 09:32:24;;;;;;;15.87;8.60;;;16.80;81.10;;;;;;5091021;28;21294;-81
2023/10/02 09:35:13;;;;;;;16.83;8.50;;;16.90;81.20;;;;;;5099878;28;20813;-81
2023/10/02 09:38:04;;;;;;;15.10;7.40;;;16.90;81.10;;;;;;5091740;28;20514;-80
2023/10/02 09:41:14;;;;;;;14.30;7.70;;;17.00;81.10;;;;;;5096658;28;20453;-79
2023/10/02 09:43:44;;;;;;;17.77;8.83;;;17.10;81.10;;;;;;5090294;28;20523;-78
2023/10/02 09:46:16;;;;;;;14.33;8.07;;;17.20;81.10;;;;;;5096261;28;20499;-80
2023/10/02 09:49:01;;;;;;;13.73;7.67;;;17.30;81.20;;;;;;5087666;28;20967;-80
2023/10/02 09:52:09;;;;;;;17.10;8.23;;;17.40;81.30;;;;;;5084248;28;20480;-81
2023/10/02 09:54:51;;;;;;;13.03;8.03;;;17.50;81.10;;;;;;5082753;28;20465;-81
2023/10/02 09:57:25;;;;;;;18.27;9.10;;;17.60;81.10;;;;;;5088670;28;20464;-80
2023/10/02 09:59:55;;;;;;;15.70;8.10;;;17.70;81.00;;;;;;5088498;28;20444;-80
2023/10/02 10:05:45;;;;;;;14.07;7.53;;;17.80;80.90;;;;;;5103903;28;20459;-80
2023/10/02 10:08:27;;;;;;;13.70;7.97;;;17.90;80.90;;;;;;5084150;28;20456;-78
2023/10/02 10:11:10;;;;;;;17.83;8.80;;;18.00;80.80;;;;;;5084480;28;20449;-79
2023/10/02 10:13:46;;;;;;;15.40;8.50;;;18.10;80.70;;;;;;5086635;28;20464;-80
2023/10/02 10:16:35;;;;;;;19.87;8.60;;;18.10;80.50;;;;;;5093882;28;20493;-81
2023/10/02 10:19:32;;;;;;;17.40;8.43;;;18.20;80.40;;;;;;5089061;28;20470;-81
2023/10/02 10:22:04;;;;;;;14.80;8.43;;;18.30;80.40;;;;;;5087559;28;20448;-79
2023/10/02 10:24:36;;;;;;;14.40;8.30;;;18.40;80.30;;;;;;5082996;28;20453;-81
2023/10/02 10:27:07;;;;;;;15.83;7.53;;;18.40;80.30;;;;;;5100441;28;20556;-80
2023/10/02 10:29:41;;;;;;;17.63;8.43;;;18.50;80.30;;;;;;5086434;28;20534;-79
2023/10/02 10:32:16;;;;;;;14.87;7.37;;;18.60;80.20;;;;;;5083851;28;21056;-81
2023/10/02 10:35:12;;;;;;;14.47;7.40;;;18.70;80.20;;;;;;5088804;28;20986;-81
2023/10/02 10:37:41;;;;;;;16.50;7.80;;;18.80;80.20;;;;;;5090900;28;20464;-82
2023/10/02 10:43:00;;;;;;;12.23;6.63;;;19.00;79.80;;;;;;5086984;28;20451;-81
2023/10/02 10:45:33;;;;;;;13.20;7.13;;;19.10;79.50;;;;;;5079910;28;20470;-82
2023/10/02 10:48:02;;;;;;;18.73;7.67;;;19.10;79.40;;;;;;5087484;28;20514;-83
2023/10/02 10:50:30;;;;;;;16.47;8.03;;;19.20;79.30;;;;;;5086046;28;20464;-79
2023/10/02 10:53:26;;;;;;;15.40;9.27;;;19.30;79.20;;;;;;5087375;28;20563;-79
2023/10/02 10:55:54;;;;;;;17.40;9.20;;;19.30;79.00;;;;;;5088075;28;20456;-80
2023/10/02 10:58:31;;;;;;;13.40;7.30;;;19.50;78.70;;;;;;5087444;28;20456;-81
2023/10/02 11:01:02;;;;;;;16.90;8.33;;;19.70;78.30;;;;;;5090041;28;20477;-81
2023/10/02 11:03:31;;;;;;;15.53;7.77;;;19.90;78.00;;;;;;5089481;28;20527;-81
2023/10/02 11:06:04;;;;;;;15.40;8.50;;;20.00;77.70;;;;;;5095005;28;20457;-79
2023/10/02 11:08:37;;;;;;;15.40;7.57;;;20.20;77.30;;;;;;5084440;28;20471;-81
2023/10/02 11:11:18;;;;;;;16.33;8.53;;;20.30;77.00;;;;;;5085733;28;20453;-81
2023/10/02 11:13:50;;;;;;;17.03;7.67;;;20.40;76.50;;;;;;5103012;27;20468;-81
2023/10/02 11:16:36;;;;;;;17.20;7.83;;;20.50;76.00;;;;;;5088362;28;20452;-78
2023/10/02 11:19:10;;;;;;;15.93;8.50;;;20.60;75.80;;;;;;5085901;28;20464;-81
2023/10/02 11:21:46;;;;;;;16.57;7.90;;;20.70;75.60;;;;;;5093501;28;20470;-80
2023/10/02 11:24:22;;;;;;;15.27;7.47;;;20.70;75.20;;;;;;5087292;28;20483;-81
2023/10/02 11:26:53;;;;;;;20.23;8.67;;;20.80;74.70;;;;;;5086871;28;20452;-81
2023/10/02 11:29:23;;;;;;;20.53;8.87;;;20.80;74.50;;;;;;5089490;28;20521;-80
2023/10/02 11:32:18;;;;;;;18.10;8.77;;;20.80;74.20;;;;;;5084589;28;20461;-79
2023/10/02 11:34:47;;;;;;;15.20;7.83;;;20.90;74.10;;;;;;5087031;28;20543;-81
2023/10/02 11:37:17;;;;;;;17.70;8.50;;;21.00;73.90;;;;;;5098491;28;20484;-80
2023/10/02 11:39:50;;;;;;;18.13;8.80;;;21.10;73.60;;;;;;5088055;28;20488;-81
2023/10/02 11:42:20;;;;;;;17.07;8.07;;;21.10;73.40;;;;;;5085940;28;20455;-81
2023/10/02 11:44:50;;;;;;;16.97;8.20;;;21.20;73.10;;;;;;5104114;28;20453;-80
2023/10/02 11:47:19;;;;;;;20.70;8.10;;;21.20;73.00;;;;;;5082171;28;20455;-81
2023/10/02 11:49:47;;;;;;;16.40;7.43;;;21.20;72.90;;;;;;5083299;28;20477;-81
2023/10/02 11:52:15;;;;;;;22.50;8.77;;;21.30;72.80;;;;;;5085556;28;20508;-80
2023/10/02 11:54:43;;;;;;;16.57;8.40;;;21.40;72.60;;;;;;5081754;28;20485;-81
2023/10/02 11:57:12;;;;;;;16.53;7.70;;;21.40;72.40;;;;;;5086893;28;20487;-81
2023/10/02 11:59:47;;;;;;;17.57;8.30;;;21.50;72.10;;;;;;5082760;28;20505;-80
2023/10/02 12:02:17;;;;;;;16.37;8.23;;;21.50;72.00;;;;;;5083573;28;20479;-79
2023/10/02 12:04:46;;;;;;;19.80;9.23;;;21.60;71.80;;;;;;5086431;28;20871;-79
2023/10/02 12:07:16;;;;;;;21.23;7.27;;;21.60;71.50;;;;;;5097952;28;20514;-80
2023/10/02 12:09:47;;;;;;;15.60;7.57;;;21.60;71.50;;;;;;5086356;28;20974;-81
2023/10/02 12:12:16;;;;;;;19.87;9.03;;;21.70;71.40;;;;;;5082959;28;20459;-81
2023/10/02 12:14:44;;;;;;;14.13;7.00;;;21.80;71.30;;;;;;5083475;28;20650;-80
2023/10/02 12:17:14;;;;;;;18.20;8.30;;;21.80;71.20;;;;;;5083280;28;20822;-79
2023/10/02 12:19:44;;;;;;;19.53;7.77;;;21.90;71.10;;;;;;5082936;28;20453;-81
2023/10/02 12:22:12;;;;;;;17.00;8.20;;;21.90;70.90;;;;;;5085504;28;20515;-81
2023/10/02 12:24:41;;;;;;;19.77;8.80;;;22.00;70.60;;;;;;5097687;28;20468;-79
2023/10/02 12:27:11;;;;;;;18.27;8.67;;;22.00;70.70;;;;;;5086765;28;20471;-80
2023/10/02 12:29:40;;;;;;;17.47;8.03;;;22.10;70.80;;;;;;5084853;28;20464;-82
2023/10/02 12:32:09;;;;;;;19.73;9.20;;;22.10;70.60;;;;;;5084798;28;20479;-80
2023/10/02 12:34:39;;;;;;;19.17;9.30;;;22.20;70.20;;;;;;5084768;28;20512;-81
2023/10/02 12:37:09;;;;;;;17.10;8.17;;;22.20;70.10;;;;;;5081412;28;20450;-79
2023/10/02 12:39:37;;;;;;;16.30;7.70;;;22.20;69.90;;;;;;5062383;28;20539;-78
2023/10/02 12:42:07;;;;;;;17.00;8.40;;;22.20;70.00;;;;;;5061874;28;20461;-78
2023/10/02 12:44:40;;;;;;;16.97;7.87;;;22.30;69.70;;;;;;5085329;28;20447;-80
2023/10/02 12:47:09;;;;;;;25.27;9.83;;;22.30;69.40;;;;;;5064249;28;20460;-80
2023/10/02 12:49:42;;;;;;;17.50;8.83;;;22.40;69.40;;;;;;5102706;28;20451;-80
2023/10/02 12:52:12;;;;;;;18.27;8.87;;;22.50;69.20;;;;;;5089962;28;20460;-81
2023/10/02 12:54:42;;;;;;;19.63;8.20;;;22.50;69.20;;;;;;5102209;28;20563;-80
2023/10/02 12:57:11;;;;;;;17.50;8.93;;;22.60;69.10;;;;;;5089248;28;20434;-81
2023/10/02 12:59:39;;;;;;;17.23;8.80;;;22.60;69.00;;;;;;5088138;28;20465;-80
2023/10/02 13:02:09;;;;;;;19.50;9.47;;;22.70;68.60;;;;;;5089592;28;20462;-80
2023/10/02 13:04:37;;;;;;;19.90;9.07;;;22.80;68.80;;;;;;5070277;28;20582;-80
2023/10/02 13:07:06;;;;;;;19.17;9.97;;;22.80;68.70;;;;;;5089871;28;20492;-80
2023/10/02 13:09:36;;;;;;;18.90;9.13;;;22.90;68.60;;;;;;5089120;28;20464;-77
2023/10/02 13:12:09;;;;;;;18.37;9.33;;;22.90;68.50;;;;;;5090983;28;20460;-78
2023/10/02 13:14:37;;;;;;;18.93;8.57;;;23.00;68.40;;;;;;5090323;28;20601;-79
2023/10/02 13:17:05;;;;;;;19.53;9.40;;;23.10;68.30;;;;;;5091964;28;20950;-78
2023/10/02 13:19:34;;;;;;;19.53;8.90;;;23.20;68.30;;;;;;5089732;28;20452;-80
2023/10/02 13:22:02;;;;;;;20.13;9.40;;;23.20;68.10;;;;;;5091390;28;20452;-80
2023/10/02 13:24:30;;;;;;;20.97;9.90;;;23.30;67.60;;;;;;5090711;28;20449;-79
2023/10/02 13:27:00;;;;;;;22.07;9.77;;;23.30;67.50;;;;;;5090218;28;20460;-80
2023/10/02 13:29:29;;;;;;;20.13;10.30;;;23.30;67.60;;;;;;5089345;28;20468;-80